sensor_id;sensor_type;location;lat;lon;timestamp;temperature;humidity
22416;DHT22;12204;50.600;4.608;2023-06-19T00:02:19;26.20;62.90
22416;DHT22;12204;50.600;4.608;2023-06-19T00:07:23;26.20;63.00
22416;DHT22;12204;50.600;4.608;2023-06-19T00:12:26;26.20;62.90
22416;DHT22;12204;50.600;4.608;2023-06-19T00:17:31;26.20;63.00
22416;DHT22;12204;50.600;4.608;2023-06-19T00:22:35;26.20;63.40
22416;DHT22;12204;50.600;4.608;2023-06-19T00:27:38;26.20;63.10
22416;DHT22;12204;50.600;4.608;2023-06-19T00:32:43;26.20;63.40
22416;DHT22;12204;50.600;4.608;2023-06-19T00:37:51;26.20;63.20
22416;DHT22;12204;50.600;4.608;2023-06-19T00:42:55;26.20;63.20
22416;DHT22;12204;50.600;4.608;2023-06-19T00:48:00;26.20;63.40
22416;DHT22;12204;50.600;4.608;2023-06-19T00:53:04;26.20;62.90
22416;DHT22;12204;50.600;4.608;2023-06-19T00:58:09;26.20;62.90
22416;DHT22;12204;50.600;4.608;2023-06-19T01:03:15;26.20;63.00
22416;DHT22;12204;50.600;4.608;2023-06-19T01:08:33;26.20;63.10
22416;DHT22;12204;50.600;4.608;2023-06-19T01:13:50;26.20;63.40
22416;DHT22;12204;50.600;4.608;2023-06-19T01:19:03;26.20;63.30
22416;DHT22;12204;50.600;4.608;2023-06-19T01:24:08;26.20;63.30
22416;DHT22;12204;50.600;4.608;2023-06-19T01:29:14;26.20;63.30
22416;DHT22;12204;50.600;4.608;2023-06-19T01:34:20;26.20;63.20
22416;DHT22;12204;50.600;4.608;2023-06-19T01:39:29;26.20;63.40
22416;DHT22;12204;50.600;4.608;2023-06-19T01:44:33;26.20;63.80
22416;DHT22;12204;50.600;4.608;2023-06-19T01:49:37;26.20;63.70
22416;DHT22;12204;50.600;4.608;2023-06-19T01:54:42;26.10;63.40
22416;DHT22;12204;50.600;4.608;2023-06-19T01:59:45;26.10;64.00
22416;DHT22;12204;50.600;4.608;2023-06-19T02:04:49;26.10;63.90
22416;DHT22;12204;50.600;4.608;2023-06-19T02:09:54;26.10;63.80
22416;DHT22;12204;50.600;4.608;2023-06-19T02:14:57;26.20;64.00
22416;DHT22;12204;50.600;4.608;2023-06-19T02:20:01;26.10;63.90
22416;DHT22;12204;50.600;4.608;2023-06-19T02:25:09;26.20;64.00
22416;DHT22;12204;50.600;4.608;2023-06-19T02:30:12;26.10;64.00
22416;DHT22;12204;50.600;4.608;2023-06-19T02:35:16;26.20;64.20
22416;DHT22;12204;50.600;4.608;2023-06-19T02:40:22;26.20;64.30
22416;DHT22;12204;50.600;4.608;2023-06-19T02:45:26;26.20;64.00
22416;DHT22;12204;50.600;4.608;2023-06-19T02:50:29;26.20;64.40
22416;DHT22;12204;50.600;4.608;2023-06-19T02:55:34;26.20;64.20
22416;DHT22;12204;50.600;4.608;2023-06-19T03:00:38;26.20;64.60
22416;DHT22;12204;50.600;4.608;2023-06-19T03:05:41;26.20;64.00
22416;DHT22;12204;50.600;4.608;2023-06-19T03:10:46;26.20;64.20
22416;DHT22;12204;50.600;4.608;2023-06-19T03:15:50;26.20;64.40
22416;DHT22;12204;50.600;4.608;2023-06-19T03:20:53;26.10;64.90
22416;DHT22;12204;50.600;4.608;2023-06-19T03:25:58;26.10;64.40
22416;DHT22;12204;50.600;4.608;2023-06-19T03:31:03;26.10;64.70
22416;DHT22;12204;50.600;4.608;2023-06-19T03:36:06;26.20;65.10
22416;DHT22;12204;50.600;4.608;2023-06-19T03:41:25;26.20;64.80
22416;DHT22;12204;50.600;4.608;2023-06-19T03:46:30;26.10;65.00
22416;DHT22;12204;50.600;4.608;2023-06-19T03:51:34;26.20;64.80
22416;DHT22;12204;50.600;4.608;2023-06-19T03:56:39;26.20;65.10
22416;DHT22;12204;50.600;4.608;2023-06-19T04:01:42;26.20;64.90
22416;DHT22;12204;50.600;4.608;2023-06-19T04:06:46;26.10;64.70
22416;DHT22;12204;50.600;4.608;2023-06-19T04:11:51;26.20;64.70
22416;DHT22;12204;50.600;4.608;2023-06-19T04:16:54;26.10;64.40
22416;DHT22;12204;50.600;4.608;2023-06-19T04:21:58;26.10;64.20
22416;DHT22;12204;50.600;4.608;2023-06-19T04:27:03;26.10;64.10
22416;DHT22;12204;50.600;4.608;2023-06-19T04:32:10;26.10;63.90
22416;DHT22;12204;50.600;4.608;2023-06-19T04:37:14;26.10;63.80
22416;DHT22;12204;50.600;4.608;2023-06-19T04:42:22;26.10;63.70
22416;DHT22;12204;50.600;4.608;2023-06-19T04:47:25;26.10;63.70
22416;DHT22;12204;50.600;4.608;2023-06-19T04:52:40;26.10;63.80
22416;DHT22;12204;50.600;4.608;2023-06-19T04:57:45;26.10;63.90
22416;DHT22;12204;50.600;4.608;2023-06-19T05:02:49;26.10;63.90
22416;DHT22;12204;50.600;4.608;2023-06-19T05:07:52;26.10;64.30
22416;DHT22;12204;50.600;4.608;2023-06-19T05:12:57;26.10;64.40
22416;DHT22;12204;50.600;4.608;2023-06-19T05:18:01;25.90;64.00
22416;DHT22;12204;50.600;4.608;2023-06-19T05:23:04;25.60;64.40
22416;DHT22;12204;50.600;4.608;2023-06-19T05:28:09;25.70;64.70
22416;DHT22;12204;50.600;4.608;2023-06-19T05:33:13;25.80;64.40
22416;DHT22;12204;50.600;4.608;2023-06-19T05:38:17;25.80;64.60
22416;DHT22;12204;50.600;4.608;2023-06-19T05:43:22;25.90;64.70
22416;DHT22;12204;50.600;4.608;2023-06-19T05:48:26;25.90;64.90
22416;DHT22;12204;50.600;4.608;2023-06-19T05:53:29;25.90;64.90
22416;DHT22;12204;50.600;4.608;2023-06-19T05:58:35;26.00;65.00
22416;DHT22;12204;50.600;4.608;2023-06-19T06:03:38;26.00;65.10
22416;DHT22;12204;50.600;4.608;2023-06-19T06:08:42;26.00;65.10
22416;DHT22;12204;50.600;4.608;2023-06-19T06:13:46;26.00;65.10
22416;DHT22;12204;50.600;4.608;2023-06-19T06:18:50;26.00;65.10
22416;DHT22;12204;50.600;4.608;2023-06-19T06:23:54;26.00;65.00
22416;DHT22;12204;50.600;4.608;2023-06-19T06:28:58;26.10;65.20
22416;DHT22;12204;50.600;4.608;2023-06-19T06:34:02;26.00;65.00
22416;DHT22;12204;50.600;4.608;2023-06-19T06:39:05;26.00;65.00
22416;DHT22;12204;50.600;4.608;2023-06-19T06:44:10;26.10;65.10
22416;DHT22;12204;50.600;4.608;2023-06-19T06:49:14;26.00;64.90
22416;DHT22;12204;50.600;4.608;2023-06-19T06:54:18;26.00;64.90
22416;DHT22;12204;50.600;4.608;2023-06-19T06:59:24;26.00;65.00
22416;DHT22;12204;50.600;4.608;2023-06-19T07:04:28;26.10;65.00
22416;DHT22;12204;50.600;4.608;2023-06-19T07:09:32;26.00;64.80
22416;DHT22;12204;50.600;4.608;2023-06-19T07:14:37;26.10;64.90
22416;DHT22;12204;50.600;4.608;2023-06-19T07:19:41;26.10;64.80
22416;DHT22;12204;50.600;4.608;2023-06-19T07:24:44;26.10;64.80
22416;DHT22;12204;50.600;4.608;2023-06-19T07:29:49;26.10;64.80
22416;DHT22;12204;50.600;4.608;2023-06-19T07:34:53;26.10;64.70
22416;DHT22;12204;50.600;4.608;2023-06-19T07:39:57;26.00;64.60
22416;DHT22;12204;50.600;4.608;2023-06-19T07:45:01;26.10;64.60
22416;DHT22;12204;50.600;4.608;2023-06-19T07:50:06;26.10;64.60
22416;DHT22;12204;50.600;4.608;2023-06-19T07:55:11;26.10;64.60
22416;DHT22;12204;50.600;4.608;2023-06-19T08:00:16;26.10;64.50
22416;DHT22;12204;50.600;4.608;2023-06-19T08:05:20;26.10;64.50
22416;DHT22;12204;50.600;4.608;2023-06-19T08:10:24;26.10;64.50
22416;DHT22;12204;50.600;4.608;2023-06-19T08:15:29;26.20;64.60
22416;DHT22;12204;50.600;4.608;2023-06-19T08:20:33;26.20;64.50
22416;DHT22;12204;50.600;4.608;2023-06-19T08:25:37;26.10;64.30
22416;DHT22;12204;50.600;4.608;2023-06-19T08:30:44;26.10;64.40
22416;DHT22;12204;50.600;4.608;2023-06-19T08:35:48;26.10;64.30
22416;DHT22;12204;50.600;4.608;2023-06-19T08:40:51;26.20;64.40
22416;DHT22;12204;50.600;4.608;2023-06-19T08:46:09;26.20;64.40
22416;DHT22;12204;50.600;4.608;2023-06-19T08:51:13;26.10;64.20
22416;DHT22;12204;50.600;4.608;2023-06-19T08:56:17;26.20;64.20
22416;DHT22;12204;50.600;4.608;2023-06-19T09:01:22;26.20;64.30
22416;DHT22;12204;50.600;4.608;2023-06-19T09:06:28;26.20;64.20
22416;DHT22;12204;50.600;4.608;2023-06-19T09:11:32;26.20;64.10
22416;DHT22;12204;50.600;4.608;2023-06-19T09:16:41;26.20;64.10
22416;DHT22;12204;50.600;4.608;2023-06-19T09:21:45;26.20;64.00
22416;DHT22;12204;50.600;4.608;2023-06-19T09:26:50;26.20;64.20
22416;DHT22;12204;50.600;4.608;2023-06-19T09:31:55;26.30;64.10
22416;DHT22;12204;50.600;4.608;2023-06-19T09:36:59;26.20;63.90
22416;DHT22;12204;50.600;4.608;2023-06-19T09:42:03;26.30;64.00
22416;DHT22;12204;50.600;4.608;2023-06-19T09:47:14;26.30;64.10
22416;DHT22;12204;50.600;4.608;2023-06-19T09:52:23;26.30;64.10
22416;DHT22;12204;50.600;4.608;2023-06-19T09:57:35;26.30;64.00
22416;DHT22;12204;50.600;4.608;2023-06-19T10:02:43;26.30;64.00
22416;DHT22;12204;50.600;4.608;2023-06-19T10:07:48;26.30;63.70
22416;DHT22;12204;50.600;4.608;2023-06-19T10:12:53;26.30;63.50
22416;DHT22;12204;50.600;4.608;2023-06-19T10:18:02;26.30;63.40
22416;DHT22;12204;50.600;4.608;2023-06-19T10:23:11;26.30;63.30
22416;DHT22;12204;50.600;4.608;2023-06-19T10:28:23;26.30;63.80
22416;DHT22;12204;50.600;4.608;2023-06-19T10:33:31;26.30;63.30
22416;DHT22;12204;50.600;4.608;2023-06-19T10:38:36;26.40;63.30
22416;DHT22;12204;50.600;4.608;2023-06-19T10:43:39;26.30;63.10
22416;DHT22;12204;50.600;4.608;2023-06-19T10:48:44;26.30;63.10
22416;DHT22;12204;50.600;4.608;2023-06-19T10:53:49;26.30;63.00
22416;DHT22;12204;50.600;4.608;2023-06-19T10:59:00;26.40;63.10
22416;DHT22;12204;50.600;4.608;2023-06-19T11:04:08;26.30;63.00
22416;DHT22;12204;50.600;4.608;2023-06-19T11:09:13;26.30;62.80
22416;DHT22;12204;50.600;4.608;2023-06-19T11:14:17;26.30;62.90
22416;DHT22;12204;50.600;4.608;2023-06-19T11:19:22;26.40;63.00
22416;DHT22;12204;50.600;4.608;2023-06-19T11:24:28;26.40;62.90
22416;DHT22;12204;50.600;4.608;2023-06-19T11:29:33;26.40;63.00
22416;DHT22;12204;50.600;4.608;2023-06-19T11:34:39;26.40;62.80
22416;DHT22;12204;50.600;4.608;2023-06-19T11:39:45;26.40;62.80
22416;DHT22;12204;50.600;4.608;2023-06-19T11:44:53;26.40;62.90
22416;DHT22;12204;50.600;4.608;2023-06-19T11:49:59;26.40;62.80
22416;DHT22;12204;50.600;4.608;2023-06-19T11:55:04;26.40;62.90
22416;DHT22;12204;50.600;4.608;2023-06-19T12:00:16;26.40;62.80
22416;DHT22;12204;50.600;4.608;2023-06-19T12:05:21;26.40;62.80
22416;DHT22;12204;50.600;4.608;2023-06-19T12:10:24;26.40;62.80
22416;DHT22;12204;50.600;4.608;2023-06-19T12:15:28;26.40;62.60
22416;DHT22;12204;50.600;4.608;2023-06-19T12:20:33;26.40;62.60
22416;DHT22;12204;50.600;4.608;2023-06-19T12:25:36;26.40;62.50
22416;DHT22;12204;50.600;4.608;2023-06-19T12:30:40;26.40;62.40
22416;DHT22;12204;50.600;4.608;2023-06-19T12:35:45;26.40;62.40
22416;DHT22;12204;50.600;4.608;2023-06-19T12:40:48;26.40;62.40
22416;DHT22;12204;50.600;4.608;2023-06-19T12:45:52;26.40;62.50
22416;DHT22;12204;50.600;4.608;2023-06-19T12:50:57;26.40;62.60
22416;DHT22;12204;50.600;4.608;2023-06-19T12:56:00;26.50;62.70
22416;DHT22;12204;50.600;4.608;2023-06-19T13:01:13;26.40;62.60
22416;DHT22;12204;50.600;4.608;2023-06-19T13:06:18;26.50;62.60
22416;DHT22;12204;50.600;4.608;2023-06-19T13:11:21;26.50;62.50
22416;DHT22;12204;50.600;4.608;2023-06-19T13:16:25;26.50;62.50
22416;DHT22;12204;50.600;4.608;2023-06-19T13:21:48;26.50;62.50
22416;DHT22;12204;50.600;4.608;2023-06-19T13:26:51;26.50;62.30
22416;DHT22;12204;50.600;4.608;2023-06-19T13:31:54;26.50;62.40
22416;DHT22;12204;50.600;4.608;2023-06-19T13:36:59;26.50;62.30
22416;DHT22;12204;50.600;4.608;2023-06-19T13:42:03;26.50;62.20
22416;DHT22;12204;50.600;4.608;2023-06-19T13:47:08;26.60;62.30
22416;DHT22;12204;50.600;4.608;2023-06-19T13:52:13;26.60;62.20
22416;DHT22;12204;50.600;4.608;2023-06-19T13:57:16;26.60;62.30
22416;DHT22;12204;50.600;4.608;2023-06-19T14:02:20;26.60;62.10
22416;DHT22;12204;50.600;4.608;2023-06-19T14:07:25;26.60;61.90
22416;DHT22;12204;50.600;4.608;2023-06-19T14:12:28;26.60;61.90
22416;DHT22;12204;50.600;4.608;2023-06-19T14:17:32;26.70;62.10
22416;DHT22;12204;50.600;4.608;2023-06-19T14:22:37;26.70;61.80
22416;DHT22;12204;50.600;4.608;2023-06-19T14:27:41;26.70;61.80
22416;DHT22;12204;50.600;4.608;2023-06-19T14:32:44;26.70;61.80
22416;DHT22;12204;50.600;4.608;2023-06-19T14:37:49;26.80;61.80
22416;DHT22;12204;50.600;4.608;2023-06-19T14:42:53;26.80;61.60
22416;DHT22;12204;50.600;4.608;2023-06-19T14:47:56;26.80;61.60
22416;DHT22;12204;50.600;4.608;2023-06-19T14:53:01;26.80;61.40
22416;DHT22;12204;50.600;4.608;2023-06-19T14:58:05;26.90;61.50
22416;DHT22;12204;50.600;4.608;2023-06-19T15:03:08;26.90;61.50
22416;DHT22;12204;50.600;4.608;2023-06-19T15:08:14;26.90;61.50
22416;DHT22;12204;50.600;4.608;2023-06-19T15:13:23;26.90;61.40
22416;DHT22;12204;50.600;4.608;2023-06-19T15:18:26;26.90;61.30
22416;DHT22;12204;50.600;4.608;2023-06-19T15:23:31;26.90;61.30
22416;DHT22;12204;50.600;4.608;2023-06-19T15:28:35;27.00;61.30
22416;DHT22;12204;50.600;4.608;2023-06-19T15:33:38;27.00;61.30
22416;DHT22;12204;50.600;4.608;2023-06-19T15:38:43;26.90;61.30
22416;DHT22;12204;50.600;4.608;2023-06-19T15:43:47;27.00;61.30
22416;DHT22;12204;50.600;4.608;2023-06-19T15:48:50;26.90;61.30
22416;DHT22;12204;50.600;4.608;2023-06-19T15:53:56;26.90;61.10
22416;DHT22;12204;50.600;4.608;2023-06-19T15:58:59;27.00;62.10
22416;DHT22;12204;50.600;4.608;2023-06-19T16:04:03;27.00;61.40
22416;DHT22;12204;50.600;4.608;2023-06-19T16:09:09;27.00;61.50
22416;DHT22;12204;50.600;4.608;2023-06-19T16:14:12;27.00;61.30
22416;DHT22;12204;50.600;4.608;2023-06-19T16:19:17;27.00;61.30
22416;DHT22;12204;50.600;4.608;2023-06-19T16:24:23;27.00;61.20
22416;DHT22;12204;50.600;4.608;2023-06-19T16:29:27;27.10;61.30
22416;DHT22;12204;50.600;4.608;2023-06-19T16:34:30;27.10;61.10
22416;DHT22;12204;50.600;4.608;2023-06-19T16:39:35;27.10;61.10
22416;DHT22;12204;50.600;4.608;2023-06-19T16:44:38;27.10;61.10
22416;DHT22;12204;50.600;4.608;2023-06-19T16:49:42;27.20;61.10
22416;DHT22;12204;50.600;4.608;2023-06-19T16:54:47;27.20;61.10
22416;DHT22;12204;50.600;4.608;2023-06-19T16:59:54;27.10;61.80
22416;DHT22;12204;50.600;4.608;2023-06-19T17:04:58;27.10;60.90
22416;DHT22;12204;50.600;4.608;2023-06-19T17:10:03;27.10;61.10
22416;DHT22;12204;50.600;4.608;2023-06-19T17:15:08;27.20;61.10
22416;DHT22;12204;50.600;4.608;2023-06-19T17:20:12;27.10;61.10
22416;DHT22;12204;50.600;4.608;2023-06-19T17:25:17;27.10;61.10
22416;DHT22;12204;50.600;4.608;2023-06-19T17:30:21;27.10;61.10
22416;DHT22;12204;50.600;4.608;2023-06-19T17:35:25;27.10;61.10
22416;DHT22;12204;50.600;4.608;2023-06-19T17:40:30;27.10;61.20
22416;DHT22;12204;50.600;4.608;2023-06-19T17:45:33;27.10;60.30
22416;DHT22;12204;50.600;4.608;2023-06-19T17:50:37;27.10;59.80
22416;DHT22;12204;50.600;4.608;2023-06-19T17:55:42;27.10;60.40
22416;DHT22;12204;50.600;4.608;2023-06-19T18:00:45;27.10;60.90
22416;DHT22;12204;50.600;4.608;2023-06-19T18:05:49;27.10;61.90
22416;DHT22;12204;50.600;4.608;2023-06-19T18:10:53;27.10;61.80
22416;DHT22;12204;50.600;4.608;2023-06-19T18:16:00;27.20;61.90
22416;DHT22;12204;50.600;4.608;2023-06-19T18:21:13;27.20;62.10
22416;DHT22;12204;50.600;4.608;2023-06-19T18:26:19;27.20;61.60
22416;DHT22;12204;50.600;4.608;2023-06-19T18:31:23;27.10;61.20
22416;DHT22;12204;50.600;4.608;2023-06-19T18:36:27;27.10;61.30
22416;DHT22;12204;50.600;4.608;2023-06-19T18:41:31;27.10;61.30
22416;DHT22;12204;50.600;4.608;2023-06-19T18:46:35;27.10;61.50
22416;DHT22;12204;50.600;4.608;2023-06-19T18:51:39;27.10;61.80
22416;DHT22;12204;50.600;4.608;2023-06-19T18:56:44;27.00;61.60
22416;DHT22;12204;50.600;4.608;2023-06-19T19:01:47;27.00;61.70
22416;DHT22;12204;50.600;4.608;2023-06-19T19:06:51;27.00;61.60
22416;DHT22;12204;50.600;4.608;2023-06-19T19:11:56;27.00;61.70
22416;DHT22;12204;50.600;4.608;2023-06-19T19:16:59;27.00;61.70
22416;DHT22;12204;50.600;4.608;2023-06-19T19:22:04;27.00;61.80
22416;DHT22;12204;50.600;4.608;2023-06-19T19:27:09;27.00;61.90
22416;DHT22;12204;50.600;4.608;2023-06-19T19:32:13;27.00;62.00
22416;DHT22;12204;50.600;4.608;2023-06-19T19:37:16;27.00;62.20
22416;DHT22;12204;50.600;4.608;2023-06-19T19:42:21;27.00;62.30
22416;DHT22;12204;50.600;4.608;2023-06-19T19:47:25;27.00;62.70
22416;DHT22;12204;50.600;4.608;2023-06-19T19:52:28;27.00;62.90
22416;DHT22;12204;50.600;4.608;2023-06-19T19:57:33;27.00;62.90
22416;DHT22;12204;50.600;4.608;2023-06-19T20:02:37;27.00;63.10
22416;DHT22;12204;50.600;4.608;2023-06-19T20:07:41;26.90;63.20
22416;DHT22;12204;50.600;4.608;2023-06-19T20:12:45;26.90;63.10
22416;DHT22;12204;50.600;4.608;2023-06-19T20:17:49;26.90;63.00
22416;DHT22;12204;50.600;4.608;2023-06-19T20:22:52;27.00;62.80
22416;DHT22;12204;50.600;4.608;2023-06-19T20:27:59;26.90;63.30
22416;DHT22;12204;50.600;4.608;2023-06-19T20:33:09;27.00;63.50
22416;DHT22;12204;50.600;4.608;2023-06-19T20:38:13;26.90;63.50
22416;DHT22;12204;50.600;4.608;2023-06-19T20:43:18;26.90;63.90
22416;DHT22;12204;50.600;4.608;2023-06-19T20:48:22;26.90;64.00
22416;DHT22;12204;50.600;4.608;2023-06-19T20:53:25;26.90;64.20
22416;DHT22;12204;50.600;4.608;2023-06-19T20:58:30;26.90;64.20
22416;DHT22;12204;50.600;4.608;2023-06-19T21:03:35;26.90;64.60
22416;DHT22;12204;50.600;4.608;2023-06-19T21:08:38;26.90;65.00
22416;DHT22;12204;50.600;4.608;2023-06-19T21:13:44;26.90;65.10
22416;DHT22;12204;50.600;4.608;2023-06-19T21:18:48;26.90;66.20
22416;DHT22;12204;50.600;4.608;2023-06-19T21:23:51;26.90;65.70
22416;DHT22;12204;50.600;4.608;2023-06-19T21:28:56;26.90;66.10
22416;DHT22;12204;50.600;4.608;2023-06-19T21:33:59;26.90;66.30
22416;DHT22;12204;50.600;4.608;2023-06-19T21:39:03;26.90;66.20
22416;DHT22;12204;50.600;4.608;2023-06-19T21:44:08;26.90;66.60
22416;DHT22;12204;50.600;4.608;2023-06-19T21:49:11;26.90;67.00
22416;DHT22;12204;50.600;4.608;2023-06-19T21:54:15;26.90;66.80
22416;DHT22;12204;50.600;4.608;2023-06-19T21:59:19;26.90;67.00
22416;DHT22;12204;50.600;4.608;2023-06-19T22:04:23;26.90;66.20
22416;DHT22;12204;50.600;4.608;2023-06-19T22:09:26;26.90;67.20
22416;DHT22;12204;50.600;4.608;2023-06-19T22:14:32;26.90;67.10
22416;DHT22;12204;50.600;4.608;2023-06-19T22:19:39;26.90;67.00
22416;DHT22;12204;50.600;4.608;2023-06-19T22:24:43;26.90;67.10
22416;DHT22;12204;50.600;4.608;2023-06-19T22:29:48;26.90;67.10
22416;DHT22;12204;50.600;4.608;2023-06-19T22:34:51;26.90;67.00
22416;DHT22;12204;50.600;4.608;2023-06-19T22:39:55;26.90;67.00
22416;DHT22;12204;50.600;4.608;2023-06-19T22:45:00;26.90;67.10
22416;DHT22;12204;50.600;4.608;2023-06-19T22:50:04;27.00;67.10
22416;DHT22;12204;50.600;4.608;2023-06-19T22:55:09;26.90;67.10
22416;DHT22;12204;50.600;4.608;2023-06-19T23:00:14;27.00;67.10
22416;DHT22;12204;50.600;4.608;2023-06-19T23:05:18;26.90;67.00
22416;DHT22;12204;50.600;4.608;2023-06-19T23:10:21;27.00;67.30
22416;DHT22;12204;50.600;4.608;2023-06-19T23:15:26;27.00;67.30
22416;DHT22;12204;50.600;4.608;2023-06-19T23:20:30;27.00;67.30
22416;DHT22;12204;50.600;4.608;2023-06-19T23:25:33;27.00;67.10
22416;DHT22;12204;50.600;4.608;2023-06-19T23:30:38;26.90;67.10
22416;DHT22;12204;50.600;4.608;2023-06-19T23:35:42;26.90;67.00
22416;DHT22;12204;50.600;4.608;2023-06-19T23:40:45;27.00;66.80
22416;DHT22;12204;50.600;4.608;2023-06-19T23:45:50;27.00;66.70
22416;DHT22;12204;50.600;4.608;2023-06-19T23:50:54;26.90;66.50
22416;DHT22;12204;50.600;4.608;2023-06-19T23:55:57;27.00;66.60
